Time;durP1;ratioP1;P1;durP2;ratioP2;P2;SDS_P1;SDS_P2;PMS_P1;PMS_P2;Temp;Humidity;BMP_temperature;BMP_pressure;BME280_temperature;BME280_humidity;BME280_pressure;Samples;Min_cycle;Max_cycle;Signal;HPM_P1;HPM_P2
2022/07/17 00:01:06;;;;;;;2.87;2.67;;;;;;;;;;4941434;29;20204;-77
2022/07/17 00:03:32;;;;;;;3.00;2.77;;;;;;;;;;4935498;29;20191;-76
2022/07/17 00:05:57;;;;;;;2.60;2.40;;;;;;;;;;4935453;29;20178;-79
2022/07/17 00:08:22;;;;;;;3.27;2.67;;;;;;;;;;4932806;29;20234;-79
2022/07/17 00:10:48;;;;;;;2.90;2.70;;;;;;;;;;4948243;28;20492;-79
2022/07/17 00:13:13;;;;;;;2.63;2.43;;;;;;;;;;4951158;28;20191;-80
2022/07/17 00:15:38;;;;;;;2.87;2.67;;;;;;;;;;4934263;29;20180;-80
2022/07/17 00:18:06;;;;;;;3.27;2.80;;;;;;;;;;4948274;29;20192;-79
2022/07/17 00:20:31;;;;;;;2.80;2.60;;;;;;;;;;4928915;29;20167;-79
2022/07/17 00:22:57;;;;;;;3.27;2.80;;;;;;;;;;4947090;28;20262;-79
2022/07/17 00:25:22;;;;;;;3.17;2.93;;;;;;;;;;4951925;28;20196;-80
2022/07/17 00:27:48;;;;;;;3.40;3.10;;;;;;;;;;4939465;29;20210;-79
2022/07/17 00:30:13;;;;;;;4.43;3.00;;;;;;;;;;4944432;29;20203;-79
2022/07/17 00:32:39;;;;;;;4.07;3.80;;;;;;;;;;4947572;29;20196;-79
2022/07/17 00:35:04;;;;;;;3.13;2.93;;;;;;;;;;4925104;29;20181;-79
2022/07/17 00:37:29;;;;;;;2.90;2.60;;;;;;;;;;4926966;29;20271;-79
2022/07/17 00:39:54;;;;;;;4.53;3.07;;;;;;;;;;4942843;28;20187;-79
2022/07/17 00:42:20;;;;;;;2.80;2.57;;;;;;;;;;4929754;29;20219;-79
2022/07/17 00:44:45;;;;;;;2.77;2.57;;;;;;;;;;4929868;29;20179;-79
2022/07/17 00:47:14;;;;;;;3.73;3.23;;;;;;;;;;4939486;28;20208;-79
2022/07/17 00:49:40;;;;;;;2.83;2.63;;;;;;;;;;4937627;29;20205;-79
2022/07/17 00:52:06;;;;;;;3.13;2.93;;;;;;;;;;4949520;29;20186;-79
2022/07/17 00:54:34;;;;;;;2.93;2.70;;;;;;;;;;4933993;29;20178;-79
2022/07/17 00:57:01;;;;;;;3.37;2.70;;;;;;;;;;4946527;29;20924;-79
2022/07/17 00:59:27;;;;;;;2.80;2.60;;;;;;;;;;4943572;29;20191;-79
2022/07/17 01:01:52;;;;;;;3.20;2.97;;;;;;;;;;4946628;29;20187;-79
2022/07/17 01:04:18;;;;;;;3.13;2.77;;;;;;;;;;4933213;29;20193;-79
2022/07/17 01:06:43;;;;;;;2.80;2.60;;;;;;;;;;4940209;29;20201;-79
2022/07/17 01:09:11;;;;;;;3.10;2.80;;;;;;;;;;4970638;28;20241;-79
2022/07/17 01:11:36;;;;;;;2.87;2.67;;;;;;;;;;4971758;28;20180;-79
2022/07/17 01:14:02;;;;;;;3.13;2.67;;;;;;;;;;4967300;28;20220;-79
2022/07/17 01:16:27;;;;;;;3.17;2.87;;;;;;;;;;4971564;28;20172;-79
2022/07/17 01:18:53;;;;;;;2.97;2.67;;;;;;;;;;4970495;28;20191;-79
2022/07/17 01:21:18;;;;;;;3.00;2.70;;;;;;;;;;4976833;28;20205;-79
2022/07/17 01:23:44;;;;;;;2.70;2.50;;;;;;;;;;4972556;28;20211;-79
2022/07/17 01:26:09;;;;;;;2.57;2.37;;;;;;;;;;4965588;28;20207;-79
2022/07/17 01:28:35;;;;;;;3.70;2.70;;;;;;;;;;4956132;28;20296;-79
2022/07/17 01:31:00;;;;;;;3.00;2.63;;;;;;;;;;4972507;28;20180;-79
2022/07/17 01:33:25;;;;;;;2.70;2.50;;;;;;;;;;4971242;28;20183;-79
2022/07/17 01:35:51;;;;;;;3.07;2.77;;;;;;;;;;4960994;28;20220;-79
2022/07/17 01:38:16;;;;;;;2.70;2.50;;;;;;;;;;4954290;28;20196;-79
2022/07/17 01:40:42;;;;;;;3.83;3.53;;;;;;;;;;4953748;28;20199;-79
2022/07/17 01:43:07;;;;;;;4.20;2.60;;;;;;;;;;4972322;28;20180;-79
2022/07/17 01:45:32;;;;;;;3.00;2.80;;;;;;;;;;4966424;28;20184;-79
2022/07/17 01:47:58;;;;;;;4.00;2.90;;;;;;;;;;4971402;28;20211;-79
2022/07/17 01:50:23;;;;;;;3.30;2.50;;;;;;;;;;4958369;28;20272;-79
2022/07/17 01:52:48;;;;;;;3.93;3.63;;;;;;;;;;4968692;28;20278;-79
2022/07/17 01:55:14;;;;;;;2.50;2.30;;;;;;;;;;4972430;28;20292;-79
2022/07/17 01:57:40;;;;;;;3.07;2.87;;;;;;;;;;4972471;28;20181;-79
2022/07/17 02:00:07;;;;;;;5.13;2.93;;;;;;;;;;4971856;28;20176;-79
2022/07/17 02:02:32;;;;;;;3.93;3.00;;;;;;;;;;4944123;28;20197;-79
2022/07/17 02:04:57;;;;;;;2.93;2.73;;;;;;;;;;4972995;28;20184;-79
2022/07/17 02:07:22;;;;;;;3.20;2.97;;;;;;;;;;4946705;28;20241;-79
2022/07/17 02:09:50;;;;;;;3.40;3.20;;;;;;;;;;4973373;28;20219;-79
2022/07/17 02:12:15;;;;;;;3.17;2.97;;;;;;;;;;4955347;28;20187;-79
2022/07/17 02:14:40;;;;;;;3.00;2.80;;;;;;;;;;4971218;28;20184;-79
2022/07/17 02:17:06;;;;;;;3.03;2.83;;;;;;;;;;4967092;28;20275;-78
2022/07/17 02:19:31;;;;;;;2.97;2.67;;;;;;;;;;4973975;28;20179;-79
2022/07/17 02:21:56;;;;;;;3.03;2.83;;;;;;;;;;4971090;28;20212;-79
2022/07/17 02:24:21;;;;;;;3.83;2.97;;;;;;;;;;4952022;28;20191;-79
2022/07/17 02:26:47;;;;;;;2.90;2.70;;;;;;;;;;4967421;28;20183;-79
2022/07/17 02:29:12;;;;;;;4.67;2.70;;;;;;;;;;4974874;28;20212;-79
2022/07/17 02:31:37;;;;;;;4.80;2.60;;;;;;;;;;4972912;28;20175;-79
2022/07/17 02:34:02;;;;;;;3.23;2.93;;;;;;;;;;4964537;28;20175;-79
2022/07/17 02:36:28;;;;;;;3.63;2.73;;;;;;;;;;4968552;28;20199;-79
2022/07/17 02:38:56;;;;;;;2.80;2.60;;;;;;;;;;4969488;28;20278;-79
2022/07/17 02:41:21;;;;;;;2.93;2.70;;;;;;;;;;4956710;28;20197;-80
2022/07/17 02:43:46;;;;;;;2.93;2.47;;;;;;;;;;4968565;28;20187;-79
2022/07/17 02:46:13;;;;;;;3.00;2.80;;;;;;;;;;4965317;28;20223;-79
2022/07/17 02:48:38;;;;;;;2.97;2.50;;;;;;;;;;4977676;28;20205;-79
2022/07/17 02:51:04;;;;;;;3.47;2.60;;;;;;;;;;4968145;28;20180;-79
2022/07/17 02:53:29;;;;;;;2.90;2.57;;;;;;;;;;4967990;28;20189;-78
2022/07/17 02:55:54;;;;;;;4.37;3.13;;;;;;;;;;4974312;28;20203;-79
2022/07/17 02:58:19;;;;;;;3.00;2.80;;;;;;;;;;4975902;28;20191;-79
2022/07/17 03:00:45;;;;;;;2.93;2.73;;;;;;;;;;4966903;28;20771;-79
2022/07/17 03:03:10;;;;;;;3.73;2.87;;;;;;;;;;4968785;28;20187;-79
2022/07/17 03:05:35;;;;;;;3.97;2.90;;;;;;;;;;4974387;28;20176;-79
2022/07/17 03:08:00;;;;;;;4.20;2.67;;;;;;;;;;4970430;28;20232;-79
2022/07/17 03:10:25;;;;;;;2.87;2.60;;;;;;;;;;4967541;28;20239;-79
2022/07/17 03:12:51;;;;;;;3.03;2.83;;;;;;;;;;4980508;28;20186;-78
2022/07/17 03:15:16;;;;;;;3.73;3.00;;;;;;;;;;4970003;28;20175;-79
2022/07/17 03:17:42;;;;;;;3.40;2.80;;;;;;;;;;4959185;28;20195;-79
2022/07/17 03:20:08;;;;;;;2.73;2.53;;;;;;;;;;4976431;28;20171;-78
2022/07/17 03:22:33;;;;;;;3.07;2.87;;;;;;;;;;4975274;28;20184;-79
2022/07/17 03:24:58;;;;;;;3.10;2.80;;;;;;;;;;4966850;28;20223;-79
2022/07/17 03:27:23;;;;;;;5.13;3.10;;;;;;;;;;4968404;28;20220;-79
2022/07/17 03:29:49;;;;;;;3.27;2.97;;;;;;;;;;4980144;28;20208;-79
2022/07/17 03:32:14;;;;;;;4.07;2.70;;;;;;;;;;4969511;28;20176;-79
2022/07/17 03:34:39;;;;;;;3.20;3.00;;;;;;;;;;4974914;28;20172;-79
2022/07/17 03:37:04;;;;;;;3.07;2.70;;;;;;;;;;4960130;28;20177;-78
2022/07/17 03:39:30;;;;;;;4.93;2.87;;;;;;;;;;4969451;28;20433;-78
2022/07/17 03:41:55;;;;;;;3.30;2.83;;;;;;;;;;4967103;28;20252;-79
2022/07/17 03:44:20;;;;;;;4.07;2.50;;;;;;;;;;4950770;28;20186;-79
2022/07/17 03:46:46;;;;;;;3.40;3.10;;;;;;;;;;4966423;28;20387;-79
2022/07/17 03:49:11;;;;;;;3.10;2.80;;;;;;;;;;4971963;28;20195;-79
2022/07/17 03:51:36;;;;;;;3.33;3.00;;;;;;;;;;4952307;28;20191;-79
2022/07/17 03:54:02;;;;;;;4.73;3.50;;;;;;;;;;4956458;28;20180;-78
2022/07/17 03:56:27;;;;;;;3.67;3.37;;;;;;;;;;4966946;28;20285;-79
2022/07/17 03:58:52;;;;;;;2.87;2.63;;;;;;;;;;4969826;28;20179;-79
2022/07/17 04:01:17;;;;;;;3.17;2.87;;;;;;;;;;4957237;28;20204;-79
2022/07/17 04:03:42;;;;;;;5.83;3.23;;;;;;;;;;4968376;28;20177;-79
2022/07/17 04:06:08;;;;;;;3.53;3.17;;;;;;;;;;4971413;28;20646;-78
2022/07/17 04:08:33;;;;;;;3.23;2.87;;;;;;;;;;4968440;28;20238;-79
2022/07/17 04:10:58;;;;;;;2.80;2.60;;;;;;;;;;4951033;28;20245;-79
2022/07/17 04:13:23;;;;;;;3.37;3.07;;;;;;;;;;4966669;28;20260;-79
2022/07/17 04:15:49;;;;;;;2.90;2.70;;;;;;;;;;4963591;28;20188;-79
2022/07/17 04:18:14;;;;;;;3.27;2.97;;;;;;;;;;4953525;28;20173;-79
2022/07/17 04:20:39;;;;;;;2.93;2.73;;;;;;;;;;4956073;28;20223;-78
2022/07/17 04:23:05;;;;;;;4.00;3.40;;;;;;;;;;4974732;28;20185;-79
2022/07/17 04:25:30;;;;;;;3.33;3.03;;;;;;;;;;4953982;28;20271;-79
2022/07/17 04:27:56;;;;;;;3.20;3.00;;;;;;;;;;4956307;28;20228;-78
2022/07/17 04:30:21;;;;;;;3.67;3.37;;;;;;;;;;4979607;28;20257;-78
2022/07/17 04:32:46;;;;;;;3.67;3.37;;;;;;;;;;4961078;28;20201;-79
2022/07/17 04:35:11;;;;;;;3.70;3.50;;;;;;;;;;4967940;28;20173;-79
2022/07/17 04:37:37;;;;;;;5.57;3.80;;;;;;;;;;4975075;28;20188;-79
2022/07/17 04:40:02;;;;;;;4.27;3.07;;;;;;;;;;4967260;28;20210;-79
2022/07/17 04:42:27;;;;;;;4.10;2.90;;;;;;;;;;4945282;28;20184;-79
2022/07/17 04:44:52;;;;;;;3.53;3.10;;;;;;;;;;4947930;28;20195;-79
2022/07/17 04:47:18;;;;;;;3.60;3.30;;;;;;;;;;4958641;28;20181;-79
2022/07/17 04:49:43;;;;;;;3.80;2.90;;;;;;;;;;4948178;28;20197;-79
2022/07/17 04:52:08;;;;;;;3.60;3.27;;;;;;;;;;4965287;28;20181;-79
2022/07/17 04:54:33;;;;;;;2.87;2.67;;;;;;;;;;4966048;28;20239;-78
2022/07/17 04:56:59;;;;;;;3.47;2.77;;;;;;;;;;4964869;28;20285;-79
2022/07/17 04:59:24;;;;;;;3.47;3.17;;;;;;;;;;4954778;29;20180;-79
2022/07/17 05:01:49;;;;;;;4.23;2.90;;;;;;;;;;4955714;28;20195;-79
2022/07/17 05:04:14;;;;;;;3.07;2.80;;;;;;;;;;4967877;28;20193;-79
2022/07/17 05:06:39;;;;;;;3.17;2.87;;;;;;;;;;4978933;28;20188;-80
2022/07/17 05:09:05;;;;;;;4.47;4.07;;;;;;;;;;4970172;28;20508;-79
2022/07/17 05:11:30;;;;;;;3.13;2.93;;;;;;;;;;4969869;28;20178;-79
2022/07/17 05:13:56;;;;;;;2.80;2.60;;;;;;;;;;4971670;28;20197;-79
2022/07/17 05:16:21;;;;;;;3.53;3.23;;;;;;;;;;4970486;28;20185;-80
2022/07/17 05:18:46;;;;;;;3.13;2.93;;;;;;;;;;4971101;28;20295;-79
2022/07/17 05:21:14;;;;;;;4.77;2.87;;;;;;;;;;4972958;28;20184;-80
2022/07/17 05:23:39;;;;;;;4.30;2.70;;;;;;;;;;4959406;28;20212;-78
2022/07/17 05:26:05;;;;;;;3.80;3.30;;;;;;;;;;4965695;28;20190;-79
2022/07/17 05:28:30;;;;;;;2.93;2.63;;;;;;;;;;4979400;28;20240;-79
2022/07/17 05:30:55;;;;;;;2.90;2.70;;;;;;;;;;4976859;28;20173;-79
2022/07/17 05:33:21;;;;;;;3.53;3.23;;;;;;;;;;4972484;28;20250;-79
2022/07/17 05:35:46;;;;;;;3.30;3.00;;;;;;;;;;4978816;28;20207;-80
2022/07/17 05:38:11;;;;;;;3.77;2.73;;;;;;;;;;4973935;28;20200;-80
2022/07/17 05:40:36;;;;;;;3.60;2.90;;;;;;;;;;4951743;28;20185;-79
2022/07/17 05:43:02;;;;;;;3.70;2.83;;;;;;;;;;4966385;28;20178;-79
2022/07/17 05:45:27;;;;;;;2.93;2.73;;;;;;;;;;4979828;28;20241;-79
2022/07/17 05:47:54;;;;;;;3.60;2.80;;;;;;;;;;4956199;28;20196;-79
2022/07/17 05:50:20;;;;;;;2.63;2.43;;;;;;;;;;4969457;28;20175;-80
2022/07/17 05:52:45;;;;;;;3.10;2.87;;;;;;;;;;4950130;28;20176;-80
2022/07/17 05:55:10;;;;;;;2.80;2.60;;;;;;;;;;4970136;28;20170;-79
2022/07/17 05:57:35;;;;;;;3.30;3.00;;;;;;;;;;4978266;28;20189;-80
2022/07/17 06:00:00;;;;;;;2.73;2.53;;;;;;;;;;4974168;28;20179;-80
2022/07/17 06:02:26;;;;;;;4.53;2.80;;;;;;;;;;4979863;28;20174;-79
2022/07/17 06:04:51;;;;;;;4.87;3.37;;;;;;;;;;4952649;28;20230;-80
2022/07/17 06:07:16;;;;;;;3.83;3.03;;;;;;;;;;4950762;28;20301;-80
2022/07/17 06:09:42;;;;;;;2.90;2.70;;;;;;;;;;4968362;28;20222;-80
2022/07/17 06:12:07;;;;;;;3.67;3.10;;;;;;;;;;4972925;28;20175;-80
2022/07/17 06:14:32;;;;;;;3.03;2.60;;;;;;;;;;4964945;28;20190;-81
2022/07/17 06:16:57;;;;;;;2.60;2.40;;;;;;;;;;4967878;28;20190;-80
2022/07/17 06:19:23;;;;;;;2.90;2.70;;;;;;;;;;4970089;28;20185;-81
2022/07/17 06:21:48;;;;;;;3.07;2.77;;;;;;;;;;4949873;28;20243;-81
2022/07/17 06:24:13;;;;;;;3.20;2.90;;;;;;;;;;4946545;28;20211;-81
2022/07/17 06:26:38;;;;;;;4.13;3.73;;;;;;;;;;4967780;28;20199;-81
2022/07/17 06:29:04;;;;;;;4.23;2.93;;;;;;;;;;4957781;28;20330;-81
2022/07/17 06:31:29;;;;;;;2.70;2.50;;;;;;;;;;4976313;28;20195;-81
2022/07/17 06:33:54;;;;;;;3.80;3.37;;;;;;;;;;4945616;28;20176;-81
2022/07/17 06:36:19;;;;;;;2.90;2.70;;;;;;;;;;4969499;28;20199;-81
2022/07/17 06:38:44;;;;;;;2.70;2.50;;;;;;;;;;4973979;28;20187;-81
2022/07/17 06:41:10;;;;;;;3.03;2.80;;;;;;;;;;4967859;28;20185;-81
2022/07/17 06:43:35;;;;;;;3.50;2.67;;;;;;;;;;4970973;28;20184;-81
2022/07/17 06:46:00;;;;;;;3.00;2.70;;;;;;;;;;4970983;28;20184;-80
2022/07/17 06:48:25;;;;;;;3.47;2.90;;;;;;;;;;4968329;28;20294;-82
2022/07/17 06:50:51;;;;;;;3.03;2.77;;;;;;;;;;4968727;28;20184;-81
2022/07/17 06:53:16;;;;;;;3.87;2.60;;;;;;;;;;4964495;28;20184;-81
2022/07/17 06:55:42;;;;;;;3.20;2.90;;;;;;;;;;4957007;28;20296;-81
2022/07/17 06:58:07;;;;;;;3.03;2.80;;;;;;;;;;4966252;28;20208;-81
2022/07/17 07:00:32;;;;;;;3.00;2.70;;;;;;;;;;4965195;28;20182;-81
2022/07/17 07:02:58;;;;;;;3.30;3.00;;;;;;;;;;4969651;28;20189;-81
2022/07/17 07:05:23;;;;;;;4.50;3.23;;;;;;;;;;4968984;28;20234;-81
2022/07/17 07:07:48;;;;;;;3.30;3.03;;;;;;;;;;4966586;28;21185;-83
2022/07/17 07:10:13;;;;;;;2.90;2.70;;;;;;;;;;4959550;28;20271;-82
2022/07/17 07:12:39;;;;;;;2.70;2.50;;;;;;;;;;4944371;28;20181;-81
2022/07/17 07:15:04;;;;;;;3.33;2.77;;;;;;;;;;4965624;28;20202;-82
2022/07/17 07:17:31;;;;;;;4.90;3.30;;;;;;;;;;4966384;28;20185;-82
2022/07/17 07:19:57;;;;;;;3.93;2.90;;;;;;;;;;4951810;29;20274;-81
2022/07/17 07:22:22;;;;;;;3.03;2.83;;;;;;;;;;4964954;28;20243;-81
2022/07/17 07:24:47;;;;;;;2.77;2.57;;;;;;;;;;4950830;28;20190;-80
2022/07/17 07:27:12;;;;;;;3.33;2.83;;;;;;;;;;4945221;28;20177;-81
2022/07/17 07:29:37;;;;;;;3.53;3.00;;;;;;;;;;4963166;28;20230;-80
2022/07/17 07:32:03;;;;;;;3.83;2.73;;;;;;;;;;4962005;28;20176;-80
2022/07/17 07:34:28;;;;;;;3.43;3.10;;;;;;;;;;4960036;28;20187;-80
2022/07/17 07:36:53;;;;;;;2.83;2.63;;;;;;;;;;4956756;28;20239;-79
2022/07/17 07:39:19;;;;;;;4.80;3.00;;;;;;;;;;4948140;29;20181;-79
2022/07/17 07:41:44;;;;;;;2.77;2.57;;;;;;;;;;4963366;28;20205;-79
2022/07/17 07:44:09;;;;;;;5.23;3.00;;;;;;;;;;4968947;28;20189;-80
2022/07/17 07:46:35;;;;;;;3.67;2.97;;;;;;;;;;4950627;28;20242;-80
2022/07/17 07:49:00;;;;;;;5.60;2.93;;;;;;;;;;4945798;28;20208;-80
2022/07/17 07:51:25;;;;;;;4.97;3.00;;;;;;;;;;4952824;28;20190;-80
2022/07/17 07:53:51;;;;;;;3.87;3.20;;;;;;;;;;4968609;28;20172;-80
2022/07/17 07:56:16;;;;;;;2.97;2.67;;;;;;;;;;4970099;28;20205;-80
2022/07/17 07:58:41;;;;;;;3.00;2.80;;;;;;;;;;4953415;28;20282;-80
2022/07/17 08:01:06;;;;;;;4.23;2.90;;;;;;;;;;4957170;28;20217;-81
2022/07/17 08:03:31;;;;;;;2.57;2.37;;;;;;;;;;4965965;28;20330;-80
2022/07/17 08:05:58;;;;;;;3.40;3.10;;;;;;;;;;4969500;28;20256;-79
2022/07/17 08:08:23;;;;;;;2.80;2.60;;;;;;;;;;4948955;29;20238;-80
2022/07/17 08:10:49;;;;;;;3.50;2.47;;;;;;;;;;4939735;29;20175;-80
2022/07/17 08:13:14;;;;;;;3.17;2.63;;;;;;;;;;4932643;29;20239;-81
2022/07/17 08:15:39;;;;;;;2.70;2.50;;;;;;;;;;4932760;29;20263;-80
2022/07/17 08:18:04;;;;;;;3.60;2.93;;;;;;;;;;4942152;29;20187;-81
2022/07/17 08:20:29;;;;;;;2.70;2.50;;;;;;;;;;4953196;28;20233;-80
2022/07/17 08:22:55;;;;;;;3.57;2.57;;;;;;;;;;4944098;29;20182;-80
2022/07/17 08:25:20;;;;;;;2.93;2.30;;;;;;;;;;4930147;29;20181;-80
2022/07/17 08:27:45;;;;;;;2.60;2.40;;;;;;;;;;4956879;28;20212;-80
2022/07/17 08:30:12;;;;;;;3.73;3.33;;;;;;;;;;4957740;28;20186;-80
2022/07/17 08:32:37;;;;;;;2.80;2.50;;;;;;;;;;4946277;28;20186;-81
2022/07/17 08:35:03;;;;;;;2.70;2.50;;;;;;;;;;4934873;29;20237;-80
2022/07/17 08:37:29;;;;;;;2.83;2.60;;;;;;;;;;4930724;29;20216;-80
2022/07/17 08:39:54;;;;;;;2.60;2.40;;;;;;;;;;4949768;28;20411;-80
2022/07/17 08:42:19;;;;;;;4.57;2.93;;;;;;;;;;4934746;29;20191;-80
2022/07/17 08:44:45;;;;;;;3.13;2.37;;;;;;;;;;4932006;29;20193;-81
2022/07/17 08:47:10;;;;;;;3.17;2.90;;;;;;;;;;4933136;29;20265;-81
2022/07/17 08:49:38;;;;;;;3.33;2.50;;;;;;;;;;4950873;28;20214;-80
2022/07/17 08:52:04;;;;;;;2.47;2.27;;;;;;;;;;4940123;29;20182;-81
2022/07/17 08:54:29;;;;;;;3.07;2.50;;;;;;;;;;4940918;28;20182;-79
2022/07/17 08:56:54;;;;;;;2.55;2.35;;;;;;;;;;4942554;28;20210;-81
2022/07/17 08:59:19;;;;;;;3.40;2.70;;;;;;;;;;4947089;28;20283;-80
2022/07/17 09:01:45;;;;;;;2.78;2.50;;;;;;;;;;4945808;28;20183;-80
2022/07/17 09:04:10;;;;;;;2.50;2.30;;;;;;;;;;4938877;29;20194;-81
2022/07/17 09:06:37;;;;;;;5.10;2.43;;;;;;;;;;4948663;28;20178;-81
2022/07/17 09:09:06;;;;;;;3.40;3.00;;;;;;;;;;4936005;29;20457;-81
2022/07/17 09:11:51;;;;;;;2.45;2.25;;;;;;;;;;4931273;29;20178;-80
2022/07/17 09:14:17;;;;;;;2.63;2.42;;;;;;;;;;4956838;28;20183;-81
2022/07/17 09:16:49;;;;;;;2.63;2.42;;;;;;;;;;4953384;28;20185;-80
2022/07/17 09:19:25;;;;;;;2.85;2.65;;;;;;;;;;4943434;29;20179;-80
2022/07/17 09:21:50;;;;;;;2.92;2.58;;;;;;;;;;4953192;28;20174;-81
2022/07/17 09:24:15;;;;;;;4.07;2.70;;;;;;;;;;4947234;28;20189;-80
2022/07/17 09:26:44;;;;;;;2.63;2.40;;;;;;;;;;4945194;29;20193;-81
2022/07/17 09:29:11;;;;;;;2.63;2.42;;;;;;;;;;4955224;28;20197;-81
2022/07/17 09:31:37;;;;;;;2.92;2.60;;;;;;;;;;4948783;28;20196;-81
2022/07/17 09:34:02;;;;;;;3.00;2.70;;;;;;;;;;4934176;29;20189;-80
2022/07/17 09:36:27;;;;;;;2.35;2.25;;;;;;;;;;4948494;29;20182;-80
2022/07/17 09:38:53;;;;;;;4.10;2.30;;;;;;;;;;4947244;29;20182;-80
2022/07/17 09:41:20;;;;;;;3.92;2.60;;;;;;;;;;4944497;29;20187;-81
2022/07/17 09:44:01;;;;;;;2.72;2.53;;;;;;;;;;4945938;29;20186;-81
2022/07/17 09:46:27;;;;;;;2.63;2.42;;;;;;;;;;4923182;29;20190;-81
2022/07/17 09:48:58;;;;;;;4.22;3.08;;;;;;;;;;4930530;29;20314;-80
2022/07/17 09:51:25;;;;;;;4.97;2.63;;;;;;;;;;4933099;29;20261;-81
2022/07/17 09:53:51;;;;;;;3.20;2.90;;;;;;;;;;4926894;29;20187;-81
2022/07/17 09:56:17;;;;;;;2.90;2.70;;;;;;;;;;4927611;29;20349;-81
2022/07/17 09:58:44;;;;;;;2.55;2.30;;;;;;;;;;4928312;29;20196;-80
2022/07/17 10:01:10;;;;;;;2.20;2.10;;;;;;;;;;4931155;29;20186;-81
2022/07/17 10:03:35;;;;;;;3.42;2.60;;;;;;;;;;4942165;29;20178;-80
2022/07/17 10:06:02;;;;;;;2.97;2.60;;;;;;;;;;4949595;29;20182;-81
2022/07/17 10:08:27;;;;;;;4.15;2.70;;;;;;;;;;4958100;28;20229;-80
2022/07/17 10:10:53;;;;;;;3.28;2.53;;;;;;;;;;4968758;28;20240;-81
2022/07/17 10:13:19;;;;;;;2.75;2.55;;;;;;;;;;4950717;28;20180;-81
2022/07/17 10:15:44;;;;;;;4.20;2.70;;;;;;;;;;4963660;28;20174;-80
2022/07/17 10:18:09;;;;;;;2.90;2.60;;;;;;;;;;4944833;28;20408;-81
2022/07/17 10:20:35;;;;;;;3.03;2.72;;;;;;;;;;4972773;28;20243;-81
2022/07/17 10:23:10;;;;;;;2.60;2.40;;;;;;;;;;4975963;28;20177;-81
2022/07/17 10:25:36;;;;;;;2.70;2.50;;;;;;;;;;4949108;29;20228;-81
2022/07/17 10:28:01;;;;;;;2.92;2.47;;;;;;;;;;4968309;28;20205;-82
2022/07/17 10:30:28;;;;;;;2.63;2.42;;;;;;;;;;4947444;28;20281;-79
2022/07/17 10:33:01;;;;;;;4.18;3.13;;;;;;;;;;4947548;28;20169;-81
2022/07/17 10:35:27;;;;;;;2.45;2.25;;;;;;;;;;4964430;28;20213;-81
2022/07/17 10:37:53;;;;;;;2.80;2.50;;;;;;;;;;4949000;28;20178;-81
2022/07/17 10:40:19;;;;;;;2.63;2.45;;;;;;;;;;4965639;28;20169;-81
2022/07/17 10:42:58;;;;;;;2.88;2.65;;;;;;;;;;4966277;28;20182;-81
2022/07/17 10:45:26;;;;;;;4.55;4.10;;;;;;;;;;4960587;28;20190;-82
2022/07/17 10:47:51;;;;;;;3.15;2.28;;;;;;;;;;4953275;28;20520;-81
2022/07/17 10:50:19;;;;;;;2.75;2.13;;;;;;;;;;4963627;28;20173;-81
2022/07/17 10:52:44;;;;;;;2.55;2.35;;;;;;;;;;4943158;29;20173;-81
2022/07/17 10:55:20;;;;;;;2.80;2.28;;;;;;;;;;4950969;28;20178;-81
2022/07/17 10:57:47;;;;;;;2.80;2.60;;;;;;;;;;4953329;28;20177;-81
2022/07/17 11:00:12;;;;;;;2.85;2.10;;;;;;;;;;4960694;28;20193;-81
2022/07/17 11:02:37;;;;;;;2.83;2.10;;;;;;;;;;4967782;28;20189;-81
2022/07/17 11:05:06;;;;;;;2.38;2.17;;;;;;;;;;4951580;29;20256;-81
2022/07/17 11:07:31;;;;;;;2.60;2.20;;;;;;;;;;4951456;28;20687;-81
2022/07/17 11:09:57;;;;;;;4.28;2.58;;;;;;;;;;4965032;28;20218;-81
2022/07/17 11:12:35;;;;;;;2.67;2.00;;;;;;;;;;4966047;28;20200;-81
2022/07/17 11:15:03;;;;;;;4.85;2.20;;;;;;;;;;4968465;28;20184;-82
2022/07/17 11:17:29;;;;;;;2.20;2.00;;;;;;;;;;4969269;28;20193;-81
2022/07/17 11:19:55;;;;;;;5.47;2.33;;;;;;;;;;4948394;28;20257;-82
2022/07/17 11:22:24;;;;;;;2.10;2.00;;;;;;;;;;4974567;28;20469;-82
2022/07/17 11:24:49;;;;;;;3.88;2.22;;;;;;;;;;4972086;28;20236;-81
2022/07/17 11:27:20;;;;;;;9.30;2.80;;;;;;;;;;4973733;28;20263;-81
2022/07/17 11:29:45;;;;;;;2.00;1.90;;;;;;;;;;4962050;28;20208;-81
2022/07/17 11:32:11;;;;;;;3.90;2.25;;;;;;;;;;4973183;28;20175;-81
2022/07/17 11:34:36;;;;;;;2.05;1.95;;;;;;;;;;4958401;28;20255;-81
2022/07/17 11:37:02;;;;;;;2.72;2.40;;;;;;;;;;4982933;28;20196;-80
2022/07/17 11:39:37;;;;;;;2.20;2.10;;;;;;;;;;4974586;28;20184;-81
2022/07/17 11:42:03;;;;;;;2.67;1.80;;;;;;;;;;4962946;28;20204;-81
2022/07/17 11:44:28;;;;;;;2.60;2.40;;;;;;;;;;4973005;28;20181;-81
2022/07/17 11:46:53;;;;;;;2.15;1.90;;;;;;;;;;4975002;28;20173;-81
2022/07/17 11:49:26;;;;;;;2.97;2.25;;;;;;;;;;4974243;28;20212;-81
2022/07/17 11:51:51;;;;;;;2.22;2.03;;;;;;;;;;4950211;28;20201;-81
2022/07/17 11:54:16;;;;;;;3.33;2.28;;;;;;;;;;4981844;28;20216;-81
2022/07/17 11:56:42;;;;;;;4.13;2.20;;;;;;;;;;4969242;28;20259;-81
2022/07/17 11:59:08;;;;;;;2.92;2.35;;;;;;;;;;4971108;28;20165;-80
2022/07/17 12:01:38;;;;;;;2.17;1.98;;;;;;;;;;4955314;28;20204;-81
2022/07/17 12:04:04;;;;;;;2.28;2.08;;;;;;;;;;4973669;28;20173;-80
2022/07/17 12:06:29;;;;;;;3.90;2.28;;;;;;;;;;4973099;28;20219;-81
2022/07/17 12:08:54;;;;;;;2.10;2.00;;;;;;;;;;4946666;28;20234;-81
2022/07/17 12:11:19;;;;;;;2.28;2.00;;;;;;;;;;4940328;29;20179;-81
2022/07/17 12:13:46;;;;;;;1.92;1.83;;;;;;;;;;4941740;29;20178;-82
2022/07/17 12:16:38;;;;;;;2.63;1.80;;;;;;;;;;4950349;29;20259;-81
2022/07/17 12:19:05;;;;;;;1.90;1.80;;;;;;;;;;4927926;29;20195;-81
2022/07/17 12:21:32;;;;;;;2.00;1.90;;;;;;;;;;4928171;29;20181;-82
2022/07/17 12:23:58;;;;;;;2.40;2.05;;;;;;;;;;4940572;29;20178;-81
2022/07/17 12:26:23;;;;;;;1.90;1.80;;;;;;;;;;4935822;29;20187;-81
2022/07/17 12:28:49;;;;;;;1.83;1.73;;;;;;;;;;4949767;28;20207;-81
2022/07/17 12:31:14;;;;;;;2.00;1.80;;;;;;;;;;4931832;29;20178;-82
2022/07/17 12:33:40;;;;;;;1.90;1.80;;;;;;;;;;4962790;28;20236;-81
2022/07/17 12:36:05;;;;;;;2.67;2.17;;;;;;;;;;4948073;28;20201;-81
2022/07/17 12:38:30;;;;;;;4.95;2.15;;;;;;;;;;4932910;29;20205;-81
2022/07/17 12:40:56;;;;;;;3.28;2.10;;;;;;;;;;4935743;29;20206;-81
2022/07/17 12:43:22;;;;;;;2.53;2.33;;;;;;;;;;4949924;29;20186;-81
2022/07/17 12:45:47;;;;;;;2.17;1.98;;;;;;;;;;4947072;29;20408;-81
2022/07/17 12:48:12;;;;;;;2.85;2.00;;;;;;;;;;4952335;28;20257;-81
2022/07/17 12:50:38;;;;;;;2.17;1.98;;;;;;;;;;4938543;28;20194;-81
2022/07/17 12:53:03;;;;;;;2.72;2.08;;;;;;;;;;4944497;29;20330;-81
2022/07/17 12:55:28;;;;;;;1.92;1.83;;;;;;;;;;4957713;28;20194;-81
2022/07/17 12:57:53;;;;;;;1.90;1.80;;;;;;;;;;4937898;29;20190;-81
2022/07/17 13:00:18;;;;;;;2.90;1.98;;;;;;;;;;4949566;29;20167;-82
2022/07/17 13:02:44;;;;;;;1.83;1.73;;;;;;;;;;4948537;29;20181;-81
2022/07/17 13:05:09;;;;;;;2.33;2.13;;;;;;;;;;4929903;29;20178;-81
2022/07/17 13:07:34;;;;;;;2.00;1.90;;;;;;;;;;4958928;28;20178;-82
2022/07/17 13:10:00;;;;;;;3.58;2.35;;;;;;;;;;4956551;28;20221;-81
2022/07/17 13:12:25;;;;;;;1.83;1.65;;;;;;;;;;4971539;28;20181;-81
2022/07/17 13:14:50;;;;;;;1.85;1.75;;;;;;;;;;4955793;28;20195;-81
2022/07/17 13:17:15;;;;;;;1.63;1.52;;;;;;;;;;4969868;28;20173;-81
2022/07/17 13:19:41;;;;;;;2.03;1.88;;;;;;;;;;4956661;28;20215;-81
2022/07/17 13:22:06;;;;;;;2.30;2.10;;;;;;;;;;4955466;28;20219;-81
2022/07/17 13:24:31;;;;;;;3.65;2.00;;;;;;;;;;4975696;28;20184;-81
2022/07/17 13:26:57;;;;;;;1.90;1.70;;;;;;;;;;4970919;28;20207;-81
2022/07/17 13:29:22;;;;;;;1.85;1.75;;;;;;;;;;4981355;28;20236;-81
2022/07/17 13:31:48;;;;;;;2.08;1.98;;;;;;;;;;4971628;28;20185;-81
2022/07/17 13:34:13;;;;;;;2.20;1.83;;;;;;;;;;4958043;28;20272;-82
2022/07/17 13:36:38;;;;;;;2.72;1.90;;;;;;;;;;4981071;28;20188;-81
2022/07/17 13:39:04;;;;;;;2.30;1.88;;;;;;;;;;4953138;28;20177;-81
2022/07/17 13:41:30;;;;;;;2.50;2.03;;;;;;;;;;4970041;28;20180;-81
2022/07/17 13:43:55;;;;;;;1.92;1.83;;;;;;;;;;4955883;28;20177;-82
2022/07/17 13:46:21;;;;;;;2.70;1.88;;;;;;;;;;4970994;28;20185;-81
2022/07/17 13:48:46;;;;;;;1.65;1.55;;;;;;;;;;4971695;28;20208;-81
2022/07/17 13:51:12;;;;;;;1.92;1.83;;;;;;;;;;4969220;28;20188;-81
2022/07/17 13:53:37;;;;;;;1.80;1.70;;;;;;;;;;4956899;28;20176;-82
2022/07/17 13:56:02;;;;;;;1.95;1.85;;;;;;;;;;4972147;28;20193;-81
2022/07/17 13:58:27;;;;;;;1.90;1.80;;;;;;;;;;4979883;28;20183;-81
2022/07/17 14:00:53;;;;;;;2.30;1.88;;;;;;;;;;4970496;28;20180;-81
2022/07/17 14:03:18;;;;;;;1.70;1.60;;;;;;;;;;4968105;28;20267;-82
2022/07/17 14:05:43;;;;;;;1.77;1.67;;;;;;;;;;4968186;28;20259;-81
2022/07/17 14:08:08;;;;;;;2.03;1.90;;;;;;;;;;4958085;28;20234;-81
2022/07/17 14:10:34;;;;;;;2.95;1.50;;;;;;;;;;4945810;28;20182;-81
2022/07/17 14:12:59;;;;;;;1.80;1.70;;;;;;;;;;4948468;29;20182;-80
2022/07/17 14:15:24;;;;;;;8.93;3.13;;;;;;;;;;4949977;28;20182;-81
2022/07/17 14:17:49;;;;;;;2.20;2.00;;;;;;;;;;4940297;29;20178;-81
2022/07/17 14:20:15;;;;;;;2.20;2.10;;;;;;;;;;4948228;29;20194;-81
2022/07/17 14:22:40;;;;;;;1.70;1.60;;;;;;;;;;4936846;28;20174;-81
2022/07/17 14:25:05;;;;;;;1.92;1.60;;;;;;;;;;4933631;29;20213;-81
2022/07/17 14:27:31;;;;;;;2.28;2.08;;;;;;;;;;4930225;29;20186;-82
2022/07/17 14:29:56;;;;;;;1.98;1.83;;;;;;;;;;4956920;28;20277;-81
2022/07/17 14:32:22;;;;;;;1.67;1.58;;;;;;;;;;4939189;28;20237;-82
2022/07/17 14:34:47;;;;;;;1.85;1.75;;;;;;;;;;4949596;29;20174;-81